< < Back
Terminal Aerodrome Forecast


Current Version              Previous Versions:   1  2  3  4  5  6  7  8  9  

Terminal Aerodrome Forecast

601
FTUS42 KGSP 010532
TAFGSP
TAF
KGSP 010532Z 0106/0206 23003KT P6SM FEW060
     FM011500 VRB03KT P6SM SCT060
     FM012300 21003KT P6SM SCT070=

Latest METAR

960
SAUS70 KWBC 011200 RRU
MTRGSP
METAR KGSP 011153Z 00000KT 10SM CLR 20/19 A3014 RMK AO2 SLP193 T02000189
10217 20189 51017


USA.gov is the U.S. government's official web portal to all federal, state and local government web resources and services.